Time;durP1;ratioP1;P1;durP2;ratioP2;P2;SDS_P1;SDS_P2;PMS_P1;PMS_P2;Temp;Humidity;BMP_temperature;BMP_pressure;BME280_temperature;BME280_humidity;BME280_pressure;Samples;Min_cycle;Max_cycle;Signal;HPM_P1;HPM_P2
2021/08/29 00:01:53;;;;;;;4.93;3.90;;;;;;;13.99;100.00;100654.59;5031450;28;20036;-76
2021/08/29 00:04:18;;;;;;;6.97;4.35;;;;;;;13.99;100.00;100652.78;5029547;28;20053;-77
2021/08/29 00:06:44;;;;;;;4.05;3.15;;;;;;;13.99;100.00;100655.44;5033067;28;20413;-77
2021/08/29 00:09:09;;;;;;;4.07;3.13;;;;;;;14.02;99.12;100652.44;5032839;28;20072;-76
2021/08/29 00:11:35;;;;;;;4.75;3.22;;;;;;;14.05;99.64;100651.25;5032445;28;20132;-77
2021/08/29 00:14:00;;;;;;;3.60;2.85;;;;;;;14.07;98.22;100646.59;5028391;28;20037;-77
2021/08/29 00:16:26;;;;;;;3.42;2.67;;;;;;;14.11;97.50;100645.28;5016590;28;20405;-76
2021/08/29 00:18:52;;;;;;;4.20;3.08;;;;;;;14.09;98.74;100641.13;5017880;28;20129;-76
2021/08/29 00:21:18;;;;;;;4.50;3.15;;;;;;;14.05;99.11;100643.28;5006658;28;20556;-77
2021/08/29 00:23:44;;;;;;;4.03;3.20;;;;;;;14.02;100.00;100628.50;5033635;28;20169;-77
2021/08/29 00:26:10;;;;;;;4.18;3.35;;;;;;;14.07;97.49;100632.47;5019599;28;20263;-77
2021/08/29 00:28:37;;;;;;;4.43;3.17;;;;;;;14.02;99.53;100627.69;5037280;28;20033;-77
2021/08/29 00:31:03;;;;;;;3.85;3.08;;;;;;;14.03;97.88;100630.16;5005577;28;20034;-77
2021/08/29 00:33:29;;;;;;;3.30;2.63;;;;;;;14.00;100.00;100624.34;5034960;28;20032;-76
2021/08/29 00:35:56;;;;;;;3.80;2.72;;;;;;;14.00;99.91;100622.53;5009262;28;20040;-77
2021/08/29 00:38:26;;;;;;;3.00;2.53;;;;;;;14.04;98.16;100620.38;5031784;28;20029;-77
2021/08/29 00:40:52;;;;;;;3.97;2.75;;;;;;;13.99;99.77;100620.88;5014072;28;20034;-76
2021/08/29 00:43:22;;;;;;;3.58;2.88;;;;;;;14.05;96.75;100610.56;5030637;28;20038;-76
2021/08/29 00:45:52;;;;;;;4.13;2.50;;;;;;;14.05;96.85;100615.88;5031231;28;20398;-77
2021/08/29 00:48:18;;;;;;;;;;;;;;;14.09;97.26;100611.88;5029342;28;20433;-76
2021/08/29 00:50:45;;;;;;;4.85;3.38;;;;;;;14.08;96.75;100611.03;5032699;28;19927;-76
2021/08/29 00:53:20;;;;;;;7.15;4.32;;;;;;;14.07;95.54;100609.38;5004690;28;20116;-77
2021/08/29 00:55:48;;;;;;;6.72;3.80;;;;;;;14.06;94.83;100610.34;5014291;28;20204;-76
2021/08/29 00:58:13;;;;;;;;;;;;;;;14.02;96.20;100603.75;5033098;28;20519;-77
2021/08/29 01:00:43;;;;;;;5.00;3.85;;;;;;;14.00;95.50;100600.44;5030770;28;19924;-77
2021/08/29 01:03:19;;;;;;;5.93;3.97;;;;;;;13.93;97.68;100602.94;5010350;28;20034;-77
2021/08/29 01:06:12;;;;;;;6.00;4.20;;;;;;;13.93;97.59;100599.47;5031946;28;20561;-77
2021/08/29 01:08:42;;;;;;;5.80;4.15;;;;;;;13.88;98.29;100594.66;5012636;28;20064;-76
2021/08/29 01:11:17;;;;;;;4.30;3.40;;;;;;;13.91;97.68;100591.66;5031047;28;20087;-76
2021/08/29 01:13:49;;;;;;;5.90;4.40;;;;;;;14.03;95.65;100592.09;5014726;28;20041;-77
2021/08/29 01:16:19;;;;;;;7.40;4.40;;;;;;;14.00;95.33;100589.78;5028684;28;20398;-76
2021/08/29 01:18:50;;;;;;;5.82;4.50;;;;;;;13.98;95.87;100589.97;5027820;28;20087;-76
2021/08/29 01:21:23;;;;;;;4.53;3.72;;;;;;;13.96;95.81;100581.31;5030963;28;20551;-76
2021/08/29 01:23:56;;;;;;;7.22;5.72;;;;;;;13.94;96.99;100593.13;5005370;28;20049;-76
2021/08/29 01:26:33;;;;;;;5.50;4.45;;;;;;;13.89;98.49;100584.84;5026765;28;20525;-76
2021/08/29 01:29:10;;;;;;;6.03;4.40;;;;;;;13.94;97.40;100582.50;5016921;28;20045;-76
2021/08/29 01:31:39;;;;;;;6.32;4.15;;;;;;;13.97;96.15;100587.50;5024367;28;20042;-77
2021/08/29 01:34:08;;;;;;;6.55;4.45;;;;;;;14.00;96.49;100585.31;5038864;28;20029;-76
2021/08/29 01:36:37;;;;;;;11.23;6.68;;;;;;;13.99;96.78;100585.47;5031510;28;20033;-76
2021/08/29 01:39:04;;;;;;;9.60;6.22;;;;;;;13.96;96.21;100588.47;5031191;28;20030;-76
2021/08/29 01:41:33;;;;;;;7.65;5.80;;;;;;;13.97;96.04;100590.16;5030500;28;20505;-76
2021/08/29 01:44:00;;;;;;;7.82;6.15;;;;;;;13.98;95.83;100575.84;5030361;28;20125;-77
2021/08/29 01:46:27;;;;;;;8.60;6.63;;;;;;;13.94;97.71;100580.69;5006530;28;20513;-76
2021/08/29 01:48:53;;;;;;;11.15;7.60;;;;;;;14.07;95.74;100582.78;5012430;28;20684;-76
2021/08/29 01:51:18;;;;;;;8.57;6.60;;;;;;;14.06;95.65;100588.25;5034320;28;20046;-76
2021/08/29 01:53:47;;;;;;;11.05;7.95;;;;;;;13.98;96.95;100578.50;5029062;28;20053;-76
2021/08/29 01:56:13;;;;;;;10.35;7.43;;;;;;;13.96;96.76;100577.84;5012410;28;20136;-76
2021/08/29 01:58:40;;;;;;;11.35;7.80;;;;;;;14.02;95.77;100569.19;5018022;28;20048;-76
2021/08/29 02:01:11;;;;;;;9.30;7.13;;;;;;;13.97;96.17;100584.84;5013754;28;20030;-76
2021/08/29 02:03:40;;;;;;;9.95;7.53;;;;;;;13.98;96.20;100579.31;5029747;28;20033;-76
2021/08/29 02:06:08;;;;;;;9.73;7.35;;;;;;;13.90;96.67;100576.72;5024057;28;20424;-76
2021/08/29 02:08:38;;;;;;;9.07;6.60;;;;;;;13.86;98.10;100580.72;5021050;28;20033;-76
2021/08/29 02:11:09;;;;;;;9.23;6.40;;;;;;;13.89;97.08;100577.69;5039256;28;20498;-76
2021/08/29 02:13:41;;;;;;;12.85;8.20;;;;;;;13.96;96.24;100569.88;5009815;28;20025;-76
2021/08/29 02:16:15;;;;;;;12.77;8.52;;;;;;;13.93;96.47;100571.03;5009532;28;20029;-76
2021/08/29 02:18:43;;;;;;;9.30;7.32;;;;;;;13.82;97.35;100571.41;5018194;28;20386;-76
2021/08/29 02:21:11;;;;;;;9.75;7.13;;;;;;;13.76;99.83;100564.97;5012241;28;20044;-76
2021/08/29 02:23:37;;;;;;;7.22;6.20;;;;;;;13.88;98.14;100568.06;5010896;28;20779;-76
2021/08/29 02:26:04;;;;;;;6.78;5.20;;;;;;;13.88;99.46;100568.06;5027969;28;20502;-76
2021/08/29 02:28:30;;;;;;;7.03;5.87;;;;;;;14.09;97.81;100572.00;5027147;28;20722;-76
2021/08/29 02:30:57;;;;;;;7.30;6.22;;;;;;;14.06;97.97;100562.50;5019355;28;20419;-74
2021/08/29 02:33:23;;;;;;;8.77;6.50;;;;;;;14.00;98.85;100564.03;5017359;28;20025;-74
2021/08/29 02:35:54;;;;;;;8.18;5.75;;;;;;;13.99;99.34;100569.50;5009760;28;20124;-74
2021/08/29 02:38:22;;;;;;;8.00;6.00;;;;;;;14.00;100.00;100563.22;5010578;28;20034;-74
2021/08/29 02:40:53;;;;;;;6.45;5.50;;;;;;;14.02;99.71;100562.03;5011896;28;20080;-74
2021/08/29 02:43:20;;;;;;;5.15;4.63;;;;;;;14.07;99.74;100558.84;5029564;28;20034;-74
2021/08/29 02:45:48;;;;;;;8.10;6.20;;;;;;;14.10;98.84;100561.16;5030941;28;20048;-74
2021/08/29 02:48:16;;;;;;;10.02;7.18;;;;;;;14.14;97.05;100551.03;5028558;28;20061;-74
2021/08/29 02:50:44;;;;;;;11.38;7.50;;;;;;;14.10;97.45;100555.84;5012309;28;20034;-74
2021/08/29 02:53:14;;;;;;;8.23;6.47;;;;;;;14.08;97.69;100554.34;5027280;28;20037;-74
2021/08/29 02:55:40;;;;;;;7.07;5.57;;;;;;;14.09;98.38;100553.38;5005466;28;20091;-74
2021/08/29 02:58:08;;;;;;;5.15;4.57;;;;;;;14.01;100.00;100555.06;5010287;28;20044;-74
2021/08/29 03:00:34;;;;;;;5.47;4.57;;;;;;;14.03;100.00;100550.38;5021726;28;20068;-74
2021/08/29 03:03:01;;;;;;;6.60;5.15;;;;;;;14.05;99.98;100552.06;5029092;28;20037;-74
2021/08/29 03:05:27;;;;;;;5.53;3.70;;;;;;;14.09;99.63;100554.19;5004640;28;20045;-74
2021/08/29 03:07:54;;;;;;;4.80;3.50;;;;;;;14.14;100.00;100557.16;5008282;28;20542;-75
2021/08/29 03:10:19;;;;;;;4.65;3.40;;;;;;;14.17;99.84;100558.63;5028851;28;20063;-74
2021/08/29 03:12:45;;;;;;;4.68;3.42;;;;;;;14.21;100.00;100549.31;5028428;28;20031;-74
2021/08/29 03:15:12;;;;;;;7.10;4.60;;;;;;;14.22;99.44;100557.09;5027036;28;20033;-74
2021/08/29 03:17:38;;;;;;;5.25;4.43;;;;;;;14.20;100.00;100551.13;5017642;28;20025;-74
2021/08/29 03:20:07;;;;;;;4.75;3.80;;;;;;;14.19;100.00;100543.34;5028398;28;20076;-74
2021/08/29 03:22:34;;;;;;;4.30;3.58;;;;;;;14.25;99.73;100550.59;5028614;28;20034;-74
2021/08/29 03:24:59;;;;;;;5.35;4.03;;;;;;;14.25;100.00;100547.94;5026277;28;20120;-73
2021/08/29 03:27:25;;;;;;;5.93;4.18;;;;;;;14.24;100.00;100531.16;5029120;28;20112;-74
2021/08/29 03:29:50;;;;;;;4.97;3.90;;;;;;;14.26;99.23;100544.28;5021947;28;20517;-74
2021/08/29 03:32:15;;;;;;;4.90;3.88;;;;;;;14.21;100.00;100538.69;5008649;28;20501;-74
2021/08/29 03:34:42;;;;;;;5.70;3.70;;;;;;;14.25;99.03;100529.31;5035198;28;20033;-74
2021/08/29 03:37:07;;;;;;;4.57;3.38;;;;;;;14.29;99.51;100530.63;5028729;28;20073;-74
2021/08/29 03:39:33;;;;;;;4.20;3.10;;;;;;;14.27;100.00;100529.97;5028772;28;20121;-74
2021/08/29 03:41:59;;;;;;;5.03;4.00;;;;;;;14.26;99.61;100530.19;5026287;28;20025;-74
2021/08/29 03:44:25;;;;;;;4.68;3.60;;;;;;;14.26;99.67;100525.69;5036551;28;20037;-74
2021/08/29 03:46:51;;;;;;;3.85;2.97;;;;;;;14.26;100.00;100525.69;5027646;28;20038;-74
2021/08/29 03:49:17;;;;;;;4.78;3.70;;;;;;;14.23;100.00;100529.53;5028082;28;20502;-74
2021/08/29 03:51:43;;;;;;;4.78;3.60;;;;;;;14.22;100.00;100527.03;5029189;28;20038;-74
2021/08/29 03:54:11;;;;;;;4.00;3.30;;;;;;;14.21;100.00;100520.88;5028249;28;20026;-74
2021/08/29 03:56:37;;;;;;;4.38;3.13;;;;;;;14.17;100.00;100516.91;5028417;28;20044;-74
2021/08/29 03:59:02;;;;;;;3.72;3.15;;;;;;;14.17;100.00;100516.91;5054263;22;20060;-82
2021/08/29 04:01:29;;;;;;;4.00;2.92;;;;;;;14.17;100.00;100513.44;5051567;28;20040;-82
2021/08/29 04:03:54;;;;;;;2.92;2.30;;;;;;;14.14;100.00;100517.28;5053549;28;20055;-81
2021/08/29 04:06:22;;;;;;;3.83;3.25;;;;;;;14.11;100.00;100514.97;5053035;28;20025;-82
2021/08/29 04:08:53;;;;;;;3.42;2.40;;;;;;;14.19;100.00;100511.44;5034947;28;20413;-80
2021/08/29 04:11:27;;;;;;;4.18;2.67;;;;;;;14.19;100.00;100506.09;5052438;28;20037;-79
2021/08/29 04:13:54;;;;;;;3.00;2.60;;;;;;;14.13;100.00;100512.13;5038580;28;20507;-79
2021/08/29 04:16:19;;;;;;;3.25;2.60;;;;;;;14.15;100.00;100505.63;5050606;28;20045;-80
2021/08/29 04:18:47;;;;;;;3.22;2.50;;;;;;;14.11;100.00;100509.66;5051243;28;20029;-80
2021/08/29 04:21:17;;;;;;;2.78;2.10;;;;;;;14.12;100.00;100505.16;5032464;28;20033;-80
2021/08/29 04:23:43;;;;;;;2.88;2.15;;;;;;;14.08;100.00;100502.00;5051058;28;20171;-79
2021/08/29 04:26:09;;;;;;;3.75;2.50;;;;;;;14.06;100.00;100506.66;5050964;28;20603;-80
2021/08/29 04:28:35;;;;;;;3.65;2.90;;;;;;;14.10;100.00;100501.84;5051903;28;20040;-80
2021/08/29 04:31:07;;;;;;;3.20;2.42;;;;;;;14.07;100.00;100507.50;5033060;28;20041;-80
2021/08/29 04:33:33;;;;;;;4.28;2.50;;;;;;;13.99;100.00;100501.25;5037105;28;20112;-80
2021/08/29 04:35:58;;;;;;;3.72;2.33;;;;;;;14.01;100.00;100506.38;5052331;28;20112;-80
2021/08/29 04:38:23;;;;;;;3.92;2.50;;;;;;;14.01;100.00;100506.38;5048120;28;20118;-80
2021/08/29 04:40:49;;;;;;;4.22;2.60;;;;;;;14.01;100.00;100512.53;5047213;28;20049;-80
2021/08/29 04:43:14;;;;;;;3.42;2.00;;;;;;;13.99;100.00;100514.53;5049387;28;20485;-79
2021/08/29 04:45:39;;;;;;;3.30;2.20;;;;;;;13.93;100.00;100514.41;5033400;28;20036;-79
2021/08/29 04:48:05;;;;;;;2.72;2.28;;;;;;;13.97;100.00;100518.38;5033038;28;20133;-78
2021/08/29 04:50:30;;;;;;;4.60;2.22;;;;;;;13.96;100.00;100514.84;5053020;28;20326;-78
2021/08/29 04:52:56;;;;;;;3.67;1.88;;;;;;;13.91;100.00;100511.91;5055287;28;20025;-78
2021/08/29 04:55:21;;;;;;;2.25;1.88;;;;;;;13.92;100.00;100518.03;5055117;28;20095;-79
2021/08/29 04:57:47;;;;;;;3.42;1.92;;;;;;;13.98;100.00;100515.50;5037839;28;20029;-79
2021/08/29 05:00:13;;;;;;;5.25;2.17;;;;;;;13.97;100.00;100513.06;5036731;28;20025;-79
2021/08/29 05:02:38;;;;;;;4.60;2.17;;;;;;;13.95;100.00;100515.88;5055408;28;20086;-79
2021/08/29 05:05:04;;;;;;;;;;;;;;;13.95;100.00;100531.00;5055123;28;20064;-79
2021/08/29 05:07:29;;;;;;;;;;;;;;;13.91;100.00;100521.72;5036378;28;20372;-78
2021/08/29 05:09:54;;;;;;;2.55;1.80;;;;;;;13.93;100.00;100525.03;5054987;28;19920;-79
2021/08/29 05:12:20;;;;;;;2.45;2.13;;;;;;;13.95;100.00;100523.03;5036393;28;20052;-78
2021/08/29 05:14:45;;;;;;;3.42;2.45;;;;;;;13.89;100.00;100521.88;5060128;28;20036;-78
2021/08/29 05:17:10;;;;;;;2.95;2.20;;;;;;;13.88;100.00;100525.53;5054541;28;20407;-79
2021/08/29 05:19:36;;;;;;;3.47;2.33;;;;;;;13.90;100.00;100526.19;5054817;28;20029;-77
2021/08/29 05:22:01;;;;;;;2.58;2.03;;;;;;;13.91;100.00;100532.34;5054397;28;20037;-78
2021/08/29 05:24:26;;;;;;;2.78;1.98;;;;;;;13.89;100.00;100532.50;5054509;28;20131;-78
2021/08/29 05:26:52;;;;;;;3.40;2.58;;;;;;;13.91;100.00;100529.69;5036942;28;20029;-79
2021/08/29 05:29:17;;;;;;;2.80;2.05;;;;;;;13.92;100.00;100528.66;5053468;28;20501;-78
2021/08/29 05:31:42;;;;;;;4.03;2.42;;;;;;;13.93;100.00;100527.69;5053597;28;20123;-79
2021/08/29 05:34:08;;;;;;;3.78;2.20;;;;;;;13.90;100.00;100533.34;5036181;28;20444;-78
2021/08/29 05:36:33;;;;;;;3.85;2.38;;;;;;;13.92;100.00;100532.19;5036287;28;20075;-78
2021/08/29 05:38:58;;;;;;;3.97;2.25;;;;;;;13.85;100.00;100539.19;5051241;28;20040;-79
2021/08/29 05:41:24;;;;;;;2.92;2.35;;;;;;;13.91;100.00;100533.16;5063303;28;20029;-78
2021/08/29 05:43:49;;;;;;;3.10;2.42;;;;;;;13.89;100.00;100531.69;5054324;28;20029;-79
2021/08/29 05:46:14;;;;;;;4.82;2.75;;;;;;;13.90;100.00;100541.34;5037064;28;20501;-79
2021/08/29 05:48:40;;;;;;;3.33;2.05;;;;;;;13.90;100.00;100544.81;5055345;28;20517;-79
2021/08/29 05:51:05;;;;;;;3.80;3.13;;;;;;;13.93;100.00;100543.63;5054621;28;20037;-79
2021/08/29 05:53:30;;;;;;;4.40;3.20;;;;;;;14.03;100.00;100539.75;5036929;28;20029;-79
2021/08/29 05:55:56;;;;;;;6.07;2.58;;;;;;;14.05;100.00;100541.41;5055620;28;20051;-79
2021/08/29 05:58:21;;;;;;;4.00;2.83;;;;;;;14.00;100.00;100541.94;5038949;28;20052;-79
2021/08/29 06:00:47;;;;;;;4.85;2.80;;;;;;;14.04;100.00;100548.56;5042338;28;20116;-79
2021/08/29 06:03:12;;;;;;;4.70;3.10;;;;;;;14.07;100.00;100548.22;5054051;28;20037;-79
2021/08/29 06:05:37;;;;;;;3.58;2.70;;;;;;;14.06;100.00;100543.06;5036357;28;20111;-79
2021/08/29 06:08:03;;;;;;;5.47;3.20;;;;;;;14.12;100.00;100548.53;5034461;28;20462;-79
2021/08/29 06:10:29;;;;;;;3.10;2.58;;;;;;;14.12;100.00;100550.34;5028846;28;20040;-79
2021/08/29 06:12:54;;;;;;;2.88;2.45;;;;;;;14.13;100.00;100555.47;5035700;28;20025;-77
2021/08/29 06:15:19;;;;;;;;;;;;;;;14.17;100.00;100543.50;5060094;28;20063;-79
2021/08/29 06:17:45;;;;;;;3.60;2.90;;;;;;;14.16;100.00;100547.19;5054569;28;20280;-79
2021/08/29 06:20:11;;;;;;;4.57;2.75;;;;;;;14.17;100.00;100540.84;5035541;28;20045;-79
2021/08/29 06:22:36;;;;;;;3.95;3.15;;;;;;;14.19;100.00;100536.19;5035817;28;20033;-79
2021/08/29 06:25:01;;;;;;;3.92;2.95;;;;;;;14.21;100.00;100539.50;5053672;28;20063;-80
2021/08/29 06:27:27;;;;;;;3.50;2.67;;;;;;;14.22;100.00;100541.13;5052869;28;20290;-79
2021/08/29 06:29:52;;;;;;;3.60;2.70;;;;;;;14.26;100.00;100546.13;5052984;28;20060;-80
2021/08/29 06:32:17;;;;;;;3.28;2.75;;;;;;;14.30;100.00;100540.28;5052404;28;20033;-79
2021/08/29 06:34:43;;;;;;;5.07;3.25;;;;;;;14.31;100.00;100541.09;5057174;28;20037;-80
2021/08/29 06:37:08;;;;;;;3.55;2.60;;;;;;;14.29;100.00;100535.97;5051847;28;20040;-78
2021/08/29 06:39:33;;;;;;;5.47;3.17;;;;;;;14.27;100.00;100540.63;5057946;28;20040;-80
2021/08/29 06:41:59;;;;;;;6.68;3.78;;;;;;;14.31;100.00;100531.28;5056339;28;20072;-79
2021/08/29 06:44:24;;;;;;;3.83;2.75;;;;;;;14.30;100.00;100532.31;5052618;28;20049;-80
2021/08/29 06:46:50;;;;;;;4.63;2.97;;;;;;;14.32;100.00;100532.13;5052249;28;20075;-80
2021/08/29 06:49:15;;;;;;;4.60;3.00;;;;;;;14.34;100.00;100533.59;5035011;28;20033;-79
2021/08/29 06:51:43;;;;;;;4.78;3.03;;;;;;;14.29;100.00;100527.97;5035189;28;20111;-79
2021/08/29 06:54:08;;;;;;;2.53;2.30;;;;;;;14.39;100.00;100527.75;5050549;28;20416;-80
2021/08/29 06:56:34;;;;;;;3.65;2.63;;;;;;;14.35;100.00;100526.44;5034597;28;20033;-79
2021/08/29 06:58:59;;;;;;;4.82;3.00;;;;;;;14.38;100.00;100523.44;5038269;28;20487;-80
2021/08/29 07:01:24;;;;;;;4.40;2.95;;;;;;;14.43;100.00;100526.41;5034507;28;20520;-79
2021/08/29 07:03:50;;;;;;;4.45;3.55;;;;;;;14.45;100.00;100529.72;5034088;28;20086;-79
2021/08/29 07:06:15;;;;;;;4.90;3.35;;;;;;;14.48;100.00;100532.00;5051315;28;20037;-79
2021/08/29 07:08:41;;;;;;;4.22;3.33;;;;;;;14.43;100.00;100526.41;5034829;28;20075;-80
2021/08/29 07:11:06;;;;;;;4.80;3.53;;;;;;;14.46;100.00;100528.69;5042470;28;20036;-79
2021/08/29 07:13:32;;;;;;;5.07;3.75;;;;;;;14.47;100.00;100530.38;5053627;28;20028;-80
2021/08/29 07:15:57;;;;;;;4.78;3.50;;;;;;;14.40;100.00;100524.91;5036088;28;20047;-80
2021/08/29 07:18:23;;;;;;;5.65;4.35;;;;;;;14.41;100.00;100534.53;5026803;28;20036;-79
2021/08/29 07:20:48;;;;;;;4.93;3.70;;;;;;;14.43;100.00;100539.69;5038358;28;20037;-80
2021/08/29 07:23:14;;;;;;;5.35;3.53;;;;;;;14.37;100.00;100543.03;5056330;28;20043;-79
2021/08/29 07:25:39;;;;;;;5.15;3.35;;;;;;;14.35;100.00;100537.94;5040689;28;20053;-80
2021/08/29 07:28:05;;;;;;;5.18;3.22;;;;;;;14.39;100.00;100547.19;5051497;28;20037;-80
2021/08/29 07:30:31;;;;;;;5.47;3.90;;;;;;;14.41;100.00;100539.88;5034338;28;20053;-80
2021/08/29 07:32:56;;;;;;;5.13;4.10;;;;;;;14.41;100.00;100539.88;5041167;28;20028;-81
2021/08/29 07:35:22;;;;;;;5.20;3.90;;;;;;;14.38;100.00;100547.38;5035171;28;20389;-80
2021/08/29 07:37:47;;;;;;;5.07;4.28;;;;;;;14.44;100.00;100544.00;5054637;28;20044;-80
2021/08/29 07:40:13;;;;;;;5.63;4.40;;;;;;;14.57;100.00;100546.94;5061119;28;20037;-80
2021/08/29 07:42:39;;;;;;;6.75;4.88;;;;;;;14.55;100.00;100551.63;5035534;28;20587;-80
2021/08/29 07:45:05;;;;;;;5.35;4.10;;;;;;;14.61;100.00;100547.41;5053275;28;20116;-80
2021/08/29 07:47:32;;;;;;;5.75;3.72;;;;;;;14.69;100.00;100557.19;5034139;28;20111;-79
2021/08/29 07:49:57;;;;;;;5.00;3.80;;;;;;;14.74;100.00;100554.81;5053069;28;20025;-79
2021/08/29 07:52:22;;;;;;;4.95;3.50;;;;;;;14.78;100.00;100554.28;5041873;28;20032;-80
2021/08/29 07:54:48;;;;;;;4.57;3.88;;;;;;;14.83;100.00;100557.22;5052860;28;21889;-80
2021/08/29 07:57:13;;;;;;;6.32;3.60;;;;;;;14.70;100.00;100557.00;5029668;28;20175;-80
2021/08/29 07:59:38;;;;;;;6.18;4.03;;;;;;;14.69;100.00;100555.34;5053143;28;20048;-79
2021/08/29 08:02:04;;;;;;;4.65;3.85;;;;;;;14.63;100.00;100554.22;5053545;28;20032;-80
2021/08/29 08:04:29;;;;;;;5.57;4.20;;;;;;;14.64;100.00;100553.22;5064624;28;20037;-80
2021/08/29 08:06:54;;;;;;;4.88;4.03;;;;;;;14.72;100.00;100549.66;5061250;28;20045;-80
2021/08/29 08:09:20;;;;;;;5.85;3.75;;;;;;;14.70;99.92;100548.19;5041186;28;20087;-79
2021/08/29 08:11:45;;;;;;;4.75;3.90;;;;;;;14.65;99.50;100554.84;5034573;28;20037;-79
2021/08/29 08:14:10;;;;;;;5.13;3.05;;;;;;;14.59;100.00;100549.44;5056595;28;20098;-79
2021/08/29 08:16:36;;;;;;;6.22;3.53;;;;;;;14.59;100.00;100550.25;5052826;28;20025;-80
2021/08/29 08:19:01;;;;;;;4.10;3.38;;;;;;;14.59;100.00;100547.59;5051849;28;20033;-79
2021/08/29 08:21:26;;;;;;;3.80;3.10;;;;;;;14.64;100.00;100558.53;5034436;28;20512;-80
2021/08/29 08:23:52;;;;;;;4.18;3.30;;;;;;;14.65;100.00;100556.69;5046147;28;20075;-80
2021/08/29 08:26:17;;;;;;;3.95;3.17;;;;;;;14.65;100.00;100554.03;5054018;28;20029;-80
2021/08/29 08:28:42;;;;;;;5.32;3.30;;;;;;;14.70;99.95;100557.00;5056806;28;20033;-80
2021/08/29 08:31:08;;;;;;;3.78;3.03;;;;;;;14.72;100.00;100559.47;5056176;28;20029;-80
2021/08/29 08:33:33;;;;;;;3.72;3.00;;;;;;;14.82;99.79;100552.06;5060332;28;20033;-78
2021/08/29 08:35:58;;;;;;;4.20;2.88;;;;;;;14.80;99.63;100560.25;5039127;28;20029;-78
2021/08/29 08:38:24;;;;;;;4.05;3.25;;;;;;;14.73;99.87;100559.31;5056295;28;20029;-79
2021/08/29 08:40:49;;;;;;;4.43;3.08;;;;;;;14.70;100.00;100561.50;5057843;28;20499;-78
2021/08/29 08:43:14;;;;;;;;;;;;;;;14.82;99.23;100562.72;5038631;28;20045;-78
2021/08/29 08:45:40;;;;;;;3.63;2.80;;;;;;;14.75;99.89;100556.47;5056349;28;19948;-79
2021/08/29 08:48:07;;;;;;;3.58;2.67;;;;;;;14.70;100.00;100561.50;5038367;28;20284;-79
2021/08/29 08:50:34;;;;;;;3.58;2.80;;;;;;;14.75;100.00;100565.25;5037875;28;20555;-79
2021/08/29 08:53:01;;;;;;;3.58;2.85;;;;;;;14.78;99.79;100556.13;5065198;28;20037;-79
2021/08/29 08:55:26;;;;;;;4.97;3.65;;;;;;;14.79;99.34;100557.75;5039871;28;20036;-79
2021/08/29 08:57:52;;;;;;;3.88;3.30;;;;;;;14.60;99.16;100562.56;5057644;28;20033;-80
2021/08/29 09:00:18;;;;;;;3.80;3.00;;;;;;;14.68;100.00;100561.66;5060848;28;20908;-80
2021/08/29 09:02:43;;;;;;;4.72;3.35;;;;;;;14.65;99.75;100562.03;5058605;28;20309;-79
2021/08/29 09:05:09;;;;;;;4.20;3.47;;;;;;;14.67;100.00;100569.84;5056184;28;20112;-79
2021/08/29 09:07:35;;;;;;;4.55;3.53;;;;;;;14.71;99.52;100565.81;5037693;28;20032;-80
2021/08/29 09:10:00;;;;;;;;;;;;;;;14.76;100.00;100566.94;5059320;28;20544;-79
2021/08/29 09:12:25;;;;;;;;;;;;;;;14.81;99.68;100569.88;5037839;28;20369;-79
2021/08/29 09:14:52;;;;;;;;;;;;;;;14.79;100.00;100571.91;5059991;28;19917;-80
2021/08/29 09:17:25;;;;;;;5.05;3.92;;;;;;;14.87;100.00;100571.00;5054364;28;20399;-79
2021/08/29 09:20:11;;;;;;;4.00;3.60;;;;;;;14.98;100.00;100569.75;5054861;28;20417;-80
2021/08/29 09:22:36;;;;;;;4.30;3.30;;;;;;;14.89;99.70;100570.81;5032439;28;20037;-79
2021/08/29 09:25:02;;;;;;;5.88;3.50;;;;;;;14.89;99.82;100574.31;5055229;28;20131;-79
2021/08/29 09:27:30;;;;;;;6.15;4.07;;;;;;;14.90;98.97;100562.69;5053238;28;20718;-79
2021/08/29 09:29:56;;;;;;;5.93;3.58;;;;;;;14.85;100.00;100573.03;5036626;28;20033;-78
2021/08/29 09:32:21;;;;;;;4.93;3.83;;;;;;;14.93;99.19;100572.97;5035515;28;20536;-79
2021/08/29 09:35:07;;;;;;;4.90;3.50;;;;;;;14.96;100.00;100574.44;5056191;28;20029;-79
2021/08/29 09:37:36;;;;;;;5.00;3.90;;;;;;;14.97;100.00;100566.28;5054822;28;20075;-80
2021/08/29 09:40:30;;;;;;;4.18;3.38;;;;;;;15.13;99.62;100567.94;5055900;28;20043;-79
2021/08/29 09:42:57;;;;;;;4.95;3.60;;;;;;;15.14;100.00;100564.28;5047824;28;20044;-78
2021/08/29 09:45:42;;;;;;;5.80;3.60;;;;;;;15.19;99.53;100566.41;5045070;28;20037;-78
2021/08/29 09:48:14;;;;;;;5.03;3.75;;;;;;;15.13;99.57;100559.13;5035218;28;20401;-79
2021/08/29 09:50:41;;;;;;;5.72;4.00;;;;;;;15.02;99.87;100571.88;5053784;28;20049;-78
2021/08/29 09:53:13;;;;;;;5.00;3.83;;;;;;;15.05;99.65;100563.53;5054193;28;20504;-79
2021/08/29 09:55:43;;;;;;;4.95;3.92;;;;;;;15.04;99.39;100566.34;5053687;28;20033;-79
2021/08/29 09:58:32;;;;;;;4.10;3.35;;;;;;;15.08;99.55;100565.81;5054227;28;20582;-80
2021/08/29 10:01:01;;;;;;;3.88;3.05;;;;;;;15.10;100.00;100562.16;5054943;28;20037;-79
2021/08/29 10:03:27;;;;;;;5.00;3.58;;;;;;;15.08;100.00;100567.66;5040775;28;20078;-81
2021/08/29 10:06:17;;;;;;;7.15;4.55;;;;;;;14.95;100.00;100560.28;5037740;28;20025;-80
2021/08/29 10:08:48;;;;;;;6.10;4.38;;;;;;;14.95;100.00;100552.31;5049628;28;20043;-80
2021/08/29 10:11:14;;;;;;;4.82;3.90;;;;;;;15.04;100.00;100561.88;5055045;28;20044;-80
2021/08/29 10:13:40;;;;;;;5.85;4.50;;;;;;;15.04;100.00;100556.56;5038291;28;20040;-80
2021/08/29 10:16:06;;;;;;;5.20;4.13;;;;;;;15.06;100.00;100551.88;5037318;28;20029;-82
2021/08/29 10:18:36;;;;;;;8.60;5.32;;;;;;;15.05;100.00;100560.03;5036693;28;20033;-80
2021/08/29 10:21:03;;;;;;;5.28;4.30;;;;;;;15.08;100.00;100555.16;5037552;28;20047;-80
2021/08/29 10:23:29;;;;;;;6.80;5.35;;;;;;;15.05;100.00;100558.19;5037786;28;20041;-80
2021/08/29 10:25:58;;;;;;;6.38;4.82;;;;;;;15.09;100.00;100553.34;5055146;28;20067;-80
2021/08/29 10:28:27;;;;;;;6.82;5.30;;;;;;;15.04;99.97;100553.91;5055032;28;20206;-81
2021/08/29 10:30:55;;;;;;;8.27;6.10;;;;;;;15.00;100.00;100557.91;5036759;28;20112;-81
2021/08/29 10:33:22;;;;;;;6.65;5.47;;;;;;;15.00;100.00;100555.25;5042226;28;20032;-80
2021/08/29 10:35:49;;;;;;;7.40;5.32;;;;;;;15.02;100.00;100555.91;5034050;28;20048;-80
2021/08/29 10:38:16;;;;;;;7.22;5.28;;;;;;;15.06;100.00;100556.34;5034639;28;20047;-81
2021/08/29 10:40:43;;;;;;;8.10;6.43;;;;;;;14.98;100.00;100554.59;5054423;28;20511;-80
2021/08/29 10:43:09;;;;;;;7.47;6.20;;;;;;;14.99;100.00;100548.28;5034610;28;20086;-79
2021/08/29 10:45:34;;;;;;;8.80;6.88;;;;;;;14.92;100.00;100547.34;5036462;28;20132;-80
2021/08/29 10:48:01;;;;;;;8.02;6.93;;;;;;;14.82;100.00;100550.22;5055671;28;20504;-81
2021/08/29 10:50:27;;;;;;;9.90;7.28;;;;;;;14.96;99.56;100547.81;5039018;28;20044;-82
2021/08/29 10:52:53;;;;;;;8.50;7.07;;;;;;;14.83;100.00;100545.75;5039013;28;20029;-80
2021/08/29 10:55:18;;;;;;;8.15;7.05;;;;;;;14.89;100.00;100547.69;5054447;28;21282;-80
2021/08/29 10:57:45;;;;;;;10.52;7.90;;;;;;;14.87;100.00;100544.38;5055112;28;20033;-82
2021/08/29 11:00:17;;;;;;;11.23;8.48;;;;;;;14.80;100.00;100540.78;5061792;28;20033;-81
2021/08/29 11:02:42;;;;;;;10.60;8.38;;;;;;;14.79;100.00;100541.78;5054504;28;20497;-81
2021/08/29 11:05:12;;;;;;;11.45;9.07;;;;;;;14.87;100.00;100544.38;5053900;28;20051;-82
2021/08/29 11:07:46;;;;;;;11.65;9.35;;;;;;;14.88;100.00;100542.56;5053320;28;20101;-81
2021/08/29 11:10:33;;;;;;;11.63;9.15;;;;;;;14.83;100.00;100540.44;5052582;28;20092;-82
2021/08/29 11:12:59;;;;;;;12.30;10.13;;;;;;;14.81;100.00;100545.94;5036087;28;20037;-81
2021/08/29 11:15:37;;;;;;;13.27;9.15;;;;;;;14.88;99.54;100543.38;5038812;28;20120;-82
2021/08/29 11:18:02;;;;;;;11.93;9.35;;;;;;;14.86;100.00;100546.22;5053592;28;20037;-79
2021/08/29 11:20:32;;;;;;;12.45;9.63;;;;;;;14.77;100.00;100541.97;5053526;28;20029;-80
2021/08/29 11:22:58;;;;;;;12.95;10.25;;;;;;;14.83;100.00;100546.59;5053598;28;20064;-81